Time;durP1;ratioP1;P1;durP2;ratioP2;P2;SDS_P1;SDS_P2;PMS_P1;PMS_P2;Temp;Humidity;BMP_temperature;BMP_pressure;BME280_temperature;BME280_humidity;BME280_pressure;Samples;Min_cycle;Max_cycle;Signal;HPM_P1;HPM_P2
2024/01/03 00:02:22;;;;;;;1384.13;842.15;;;7.30;99.90;;;;;;5047711;28;20060;-76
2024/01/03 00:04:49;;;;;;;1147.50;827.13;;;7.30;99.90;;;;;;5035056;28;20041;-77
2024/01/03 00:07:16;;;;;;;747.33;659.30;;;7.30;99.90;;;;;;5027750;28;20037;-77
2024/01/03 00:09:44;;;;;;;1511.93;885.55;;;7.20;99.90;;;;;;5031811;28;20040;-76
2024/01/03 00:12:22;;;;;;;1309.60;896.33;;;7.20;99.90;;;;;;5032515;28;20599;-77
2024/01/03 00:14:48;;;;;;;959.92;793.22;;;7.20;99.90;;;;;;5048615;28;20045;-77
2024/01/03 00:17:15;;;;;;;1161.15;856.13;;;7.20;99.90;;;;;;5046608;28;20053;-77
2024/01/03 00:19:44;;;;;;;1129.07;836.25;;;7.20;99.90;;;;;;5050613;28;20052;-78
2024/01/03 00:22:12;;;;;;;791.95;711.97;;;7.20;99.90;;;;;;5032467;28;20037;-76
2024/01/03 00:24:46;;;;;;;807.38;719.78;;;7.30;99.90;;;;;;5047086;28;20049;-77
2024/01/03 00:27:22;;;;;;;779.13;702.38;;;7.20;99.90;;;;;;5049208;28;20060;-77
2024/01/03 00:29:58;;;;;;;909.78;781.85;;;7.30;99.90;;;;;;5030070;28;20041;-80
2024/01/03 00:32:25;;;;;;;1126.65;824.25;;;7.30;99.90;;;;;;5028594;28;20045;-76
2024/01/03 00:34:52;;;;;;;756.05;680.35;;;7.30;99.90;;;;;;5043817;28;20417;-78
2024/01/03 00:37:28;;;;;;;982.33;768.95;;;7.30;99.90;;;;;;5031394;28;20052;-78
2024/01/03 00:39:55;;;;;;;834.05;743.60;;;7.30;99.90;;;;;;5026044;28;20386;-79
2024/01/03 00:42:21;;;;;;;1113.07;767.72;;;7.30;99.90;;;;;;5026619;28;20043;-77
2024/01/03 00:44:50;;;;;;;1000.70;777.08;;;7.30;99.90;;;;;;5032112;28;20037;-78
2024/01/03 00:47:18;;;;;;;1173.65;794.85;;;7.30;99.90;;;;;;5031290;28;20037;-78
2024/01/03 00:49:47;;;;;;;819.22;733.97;;;7.30;99.90;;;;;;5047617;28;20037;-78
2024/01/03 00:52:16;;;;;;;849.55;758.83;;;7.30;99.90;;;;;;5033175;28;20040;-78
2024/01/03 00:54:43;;;;;;;768.83;688.33;;;7.30;99.90;;;;;;5045310;28;20036;-77
2024/01/03 00:57:11;;;;;;;1547.68;874.60;;;7.30;99.90;;;;;;5031926;28;20041;-77
2024/01/03 00:59:37;;;;;;;799.80;720.88;;;7.30;99.90;;;;;;5048051;28;20396;-78
2024/01/03 01:02:04;;;;;;;736.13;659.10;;;7.30;99.90;;;;;;5050955;28;20132;-77
2024/01/03 01:04:32;;;;;;;923.80;746.75;;;7.30;99.90;;;;;;5024301;28;20042;-78
2024/01/03 01:06:58;;;;;;;1069.75;826.05;;;7.30;99.90;;;;;;5031990;28;20037;-78
2024/01/03 01:09:26;;;;;;;932.35;767.03;;;7.30;99.90;;;;;;5054330;28;20037;-76
2024/01/03 01:11:53;;;;;;;955.70;793.88;;;7.30;99.90;;;;;;5026913;28;20502;-79
2024/01/03 01:14:21;;;;;;;1522.55;931.67;;;7.30;99.90;;;;;;5030359;28;20033;-80
2024/01/03 01:16:49;;;;;;;783.38;704.15;;;7.30;99.90;;;;;;5032379;28;20067;-79
2024/01/03 01:19:15;;;;;;;833.70;741.65;;;7.30;99.90;;;;;;5030994;28;20040;-76
2024/01/03 01:21:42;;;;;;;874.90;770.80;;;7.30;99.90;;;;;;5031889;28;20053;-76
2024/01/03 01:24:09;;;;;;;744.75;653.67;;;7.30;99.90;;;;;;5044372;28;20517;-78
2024/01/03 01:26:37;;;;;;;1172.40;807.20;;;7.30;99.90;;;;;;5030775;28;20178;-75
2024/01/03 01:29:05;;;;;;;1038.35;782.55;;;7.30;99.90;;;;;;5030618;28;20102;-76
2024/01/03 01:31:33;;;;;;;844.85;750.25;;;7.30;99.90;;;;;;5047362;28;20043;-76
2024/01/03 01:34:00;;;;;;;595.47;545.10;;;7.30;99.90;;;;;;5033393;28;20061;-76
2024/01/03 01:36:28;;;;;;;790.67;711.70;;;7.30;99.90;;;;;;5029522;28;20770;-77
2024/01/03 01:38:54;;;;;;;695.67;630.10;;;7.30;99.90;;;;;;5021264;28;20082;-78
2024/01/03 01:41:22;;;;;;;833.33;738.43;;;7.30;99.90;;;;;;5045265;28;20478;-75
2024/01/03 01:43:53;;;;;;;719.23;649.87;;;7.30;99.90;;;;;;5030604;28;20051;-76
2024/01/03 01:46:21;;;;;;;794.55;716.30;;;7.30;99.90;;;;;;5046967;28;20295;-74
2024/01/03 01:48:50;;;;;;;592.78;537.72;;;7.30;99.90;;;;;;5026464;28;20039;-77
2024/01/03 01:51:18;;;;;;;590.28;542.35;;;7.30;99.90;;;;;;5027689;28;20068;-77
2024/01/03 01:53:47;;;;;;;700.70;637.22;;;7.40;99.90;;;;;;5015136;28;20068;-76
2024/01/03 01:56:14;;;;;;;694.83;627.92;;;7.40;99.90;;;;;;5048591;28;20129;-77
2024/01/03 01:58:42;;;;;;;836.92;745.83;;;7.40;99.90;;;;;;5046857;28;20037;-77
2024/01/03 02:01:09;;;;;;;810.67;726.30;;;7.40;99.90;;;;;;5028775;28;20068;-78
2024/01/03 02:03:39;;;;;;;1144.72;811.08;;;7.50;99.90;;;;;;5046485;28;20390;-76
2024/01/03 02:06:10;;;;;;;816.33;717.22;;;7.50;99.90;;;;;;5029343;28;20143;-77
2024/01/03 02:08:37;;;;;;;1188.07;854.43;;;7.50;99.90;;;;;;5051801;28;20048;-77
2024/01/03 02:11:04;;;;;;;641.38;585.78;;;7.50;99.90;;;;;;5030196;28;20274;-78
2024/01/03 02:13:30;;;;;;;565.03;520.30;;;7.50;99.90;;;;;;5046389;28;20039;-78
2024/01/03 02:15:58;;;;;;;781.40;700.93;;;7.50;99.90;;;;;;5042610;28;20040;-78
2024/01/03 02:18:26;;;;;;;821.53;732.17;;;7.50;99.90;;;;;;5042391;28;20106;-78
2024/01/03 02:20:59;;;;;;;810.47;705.63;;;7.50;99.90;;;;;;5027628;28;20083;-76
2024/01/03 02:23:25;;;;;;;747.45;673.38;;;7.50;99.90;;;;;;5025970;28;20084;-79
2024/01/03 02:25:52;;;;;;;789.28;706.10;;;7.50;99.90;;;;;;5043243;28;20029;-75
2024/01/03 02:28:19;;;;;;;704.25;633.15;;;7.50;99.90;;;;;;5042055;28;20037;-75
2024/01/03 02:30:48;;;;;;;715.67;633.57;;;7.60;99.90;;;;;;5042614;28;20072;-75
2024/01/03 02:33:15;;;;;;;802.92;717.40;;;7.60;99.90;;;;;;5045508;28;20779;-74
2024/01/03 02:35:44;;;;;;;955.30;756.37;;;7.60;99.90;;;;;;5029877;28;20556;-74
2024/01/03 02:38:11;;;;;;;867.58;752.92;;;7.70;99.90;;;;;;5047343;28;20268;-75
2024/01/03 02:40:38;;;;;;;767.22;690.13;;;7.70;99.90;;;;;;5044636;28;20110;-75
2024/01/03 02:43:04;;;;;;;1265.70;855.47;;;7.70;99.90;;;;;;5026996;28;20699;-75
2024/01/03 02:45:31;;;;;;;520.30;479.27;;;7.70;99.90;;;;;;5046297;28;20041;-76
2024/01/03 02:48:01;;;;;;;621.53;567.45;;;7.70;99.90;;;;;;5030592;28;20067;-76
2024/01/03 02:50:30;;;;;;;750.72;677.88;;;7.70;99.90;;;;;;5043553;28;20048;-76
2024/01/03 02:53:00;;;;;;;609.03;555.15;;;7.70;99.90;;;;;;5025976;28;20670;-75
2024/01/03 02:55:27;;;;;;;667.25;604.22;;;7.70;99.90;;;;;;5045300;28;20083;-76
2024/01/03 02:57:55;;;;;;;600.08;549.80;;;7.80;99.90;;;;;;5023843;28;20132;-77
2024/01/03 03:00:21;;;;;;;575.90;527.88;;;7.70;99.90;;;;;;5030383;28;20078;-75
2024/01/03 03:02:49;;;;;;;639.92;580.58;;;7.70;99.90;;;;;;5042989;28;20440;-75
2024/01/03 03:05:16;;;;;;;714.03;644.50;;;7.80;99.90;;;;;;5027441;28;20490;-74
2024/01/03 03:07:43;;;;;;;472.23;436.20;;;7.70;99.90;;;;;;5050966;28;20036;-76
2024/01/03 03:10:12;;;;;;;562.07;515.23;;;7.70;99.90;;;;;;5029262;28;20037;-75
2024/01/03 03:12:43;;;;;;;664.92;604.30;;;7.70;99.90;;;;;;5025407;28;20528;-76
2024/01/03 03:15:10;;;;;;;556.67;511.57;;;7.70;99.90;;;;;;5027411;28;20044;-77
2024/01/03 03:17:38;;;;;;;629.77;571.00;;;7.80;99.90;;;;;;5028769;28;20346;-76
2024/01/03 03:20:05;;;;;;;520.78;475.50;;;7.80;99.90;;;;;;5049429;28;20353;-76
2024/01/03 03:22:37;;;;;;;591.78;542.33;;;7.80;99.90;;;;;;5049569;28;20179;-76
2024/01/03 03:25:08;;;;;;;443.25;409.80;;;7.80;99.90;;;;;;5030813;28;20079;-76
2024/01/03 03:27:35;;;;;;;456.47;423.50;;;7.80;99.90;;;;;;5030611;28;20048;-76
2024/01/03 03:30:02;;;;;;;498.23;459.27;;;7.70;99.90;;;;;;5042472;28;20636;-76
2024/01/03 03:32:31;;;;;;;568.70;520.10;;;7.80;99.90;;;;;;5050755;28;20047;-75
2024/01/03 03:34:59;;;;;;;749.73;669.73;;;7.80;99.90;;;;;;5043752;28;20876;-75
2024/01/03 03:37:27;;;;;;;523.13;480.83;;;7.70;99.90;;;;;;5027125;28;20379;-75
2024/01/03 03:39:53;;;;;;;615.63;559.80;;;7.70;99.90;;;;;;5046765;28;20297;-76
2024/01/03 03:42:19;;;;;;;534.50;493.53;;;7.80;99.90;;;;;;5033098;28;20405;-76
2024/01/03 03:44:47;;;;;;;543.63;498.90;;;7.70;99.90;;;;;;5032626;28;20093;-75
2024/01/03 03:47:15;;;;;;;435.40;400.97;;;7.70;99.90;;;;;;5033303;28;20279;-75
2024/01/03 03:49:41;;;;;;;614.00;558.73;;;7.70;99.90;;;;;;5033523;28;20292;-76
2024/01/03 03:52:07;;;;;;;576.33;527.73;;;7.80;99.90;;;;;;5048844;28;20341;-76
2024/01/03 03:54:34;;;;;;;459.30;424.60;;;7.80;99.90;;;;;;5032934;28;20315;-76
2024/01/03 03:57:02;;;;;;;542.93;497.33;;;7.80;99.90;;;;;;5049146;28;20041;-76
2024/01/03 03:59:30;;;;;;;667.67;607.27;;;7.80;99.90;;;;;;5048881;28;20267;-76
2024/01/03 04:02:00;;;;;;;528.53;486.97;;;7.80;99.90;;;;;;5030152;28;20314;-76
2024/01/03 04:04:26;;;;;;;575.13;529.87;;;7.80;99.90;;;;;;5030178;28;20315;-75
2024/01/03 04:06:53;;;;;;;503.30;465.00;;;7.80;99.90;;;;;;5031348;28;20358;-75
2024/01/03 04:09:24;;;;;;;654.17;598.57;;;7.80;99.90;;;;;;5033621;28;20056;-75
2024/01/03 04:11:51;;;;;;;651.07;589.33;;;7.80;99.90;;;;;;5033323;28;21016;-75
2024/01/03 04:14:17;;;;;;;701.50;635.23;;;7.80;99.90;;;;;;5049069;28;20302;-76
2024/01/03 04:16:46;;;;;;;500.13;461.43;;;7.80;99.90;;;;;;5047314;28;21202;-77
2024/01/03 04:19:13;;;;;;;492.00;453.77;;;7.80;99.90;;;;;;5049540;28;20267;-76
2024/01/03 04:21:40;;;;;;;438.03;405.77;;;7.80;99.90;;;;;;5045628;28;20298;-76
2024/01/03 04:24:07;;;;;;;470.17;434.63;;;7.80;99.90;;;;;;5032947;28;20953;-76
2024/01/03 04:26:36;;;;;;;482.40;445.40;;;7.80;99.90;;;;;;5029738;28;20672;-77
2024/01/03 04:29:05;;;;;;;547.63;501.93;;;7.80;99.90;;;;;;5028818;28;20279;-76
2024/01/03 04:31:32;;;;;;;581.28;534.10;;;7.90;99.90;;;;;;5045159;28;20309;-74
2024/01/03 04:33:58;;;;;;;629.17;573.17;;;7.90;99.90;;;;;;5031865;28;20052;-75
2024/01/03 04:36:24;;;;;;;527.23;485.67;;;7.90;99.90;;;;;;5025509;28;20371;-75
2024/01/03 04:38:56;;;;;;;505.83;467.93;;;7.90;99.90;;;;;;5048648;28;20374;-75
2024/01/03 04:41:24;;;;;;;507.70;469.30;;;7.80;99.90;;;;;;5030434;28;20124;-74
2024/01/03 04:43:55;;;;;;;442.40;410.67;;;7.70;99.90;;;;;;5048810;28;20779;-73
2024/01/03 04:46:23;;;;;;;528.03;484.10;;;7.60;99.90;;;;;;5047101;28;20304;-74
2024/01/03 04:48:49;;;;;;;545.97;501.00;;;7.60;99.90;;;;;;5048395;28;20330;-75
2024/01/03 04:51:15;;;;;;;381.67;355.87;;;7.60;99.90;;;;;;5032012;28;20287;-76
2024/01/03 04:53:45;;;;;;;469.63;434.23;;;7.60;99.90;;;;;;5048510;28;20096;-76
2024/01/03 04:56:12;;;;;;;607.27;554.37;;;7.60;99.90;;;;;;5023811;28;20307;-75
2024/01/03 04:58:40;;;;;;;463.77;429.80;;;7.50;99.90;;;;;;5048379;28;20275;-75
2024/01/03 05:01:07;;;;;;;400.93;372.47;;;7.50;99.90;;;;;;5048712;28;20358;-76
2024/01/03 05:03:34;;;;;;;387.03;359.73;;;7.50;99.90;;;;;;5042871;28;20278;-75
2024/01/03 05:06:01;;;;;;;370.47;343.57;;;7.50;99.90;;;;;;5048298;28;20323;-75
2024/01/03 05:08:32;;;;;;;475.63;437.90;;;7.50;99.90;;;;;;5031973;28;20686;-74
2024/01/03 05:10:58;;;;;;;501.63;461.50;;;7.50;99.90;;;;;;5048133;28;20288;-75
2024/01/03 05:13:25;;;;;;;537.67;491.87;;;7.50;99.90;;;;;;5024925;28;20288;-76
2024/01/03 05:15:54;;;;;;;526.53;484.13;;;7.60;99.90;;;;;;5044336;28;20818;-75
2024/01/03 05:18:21;;;;;;;573.33;525.53;;;7.60;99.90;;;;;;5040698;28;20863;-75
2024/01/03 05:20:48;;;;;;;572.80;525.70;;;7.70;99.90;;;;;;5030243;28;20364;-76
2024/01/03 05:23:15;;;;;;;676.27;611.43;;;7.80;99.90;;;;;;5027375;28;21084;-75
2024/01/03 05:25:41;;;;;;;625.47;573.67;;;7.90;99.90;;;;;;5046102;28;20320;-74
2024/01/03 05:28:08;;;;;;;478.87;441.67;;;7.90;99.90;;;;;;5044784;28;20284;-76
2024/01/03 05:30:35;;;;;;;472.03;435.77;;;7.90;99.90;;;;;;5021987;28;20295;-76
2024/01/03 05:33:05;;;;;;;606.27;552.93;;;7.90;99.90;;;;;;5026335;28;20101;-75
2024/01/03 05:35:34;;;;;;;652.97;594.70;;;8.00;99.90;;;;;;5047665;28;20306;-75
2024/01/03 05:38:03;;;;;;;526.17;485.17;;;8.00;99.90;;;;;;5030236;28;20791;-76
2024/01/03 05:40:30;;;;;;;787.57;709.17;;;8.00;99.90;;;;;;5030491;28;20279;-75
2024/01/03 05:42:56;;;;;;;545.07;500.03;;;8.00;99.90;;;;;;5028817;28;20298;-76
2024/01/03 05:45:24;;;;;;;593.73;544.27;;;8.00;99.90;;;;;;5045059;28;20557;-76
2024/01/03 05:47:54;;;;;;;637.37;580.87;;;8.00;99.90;;;;;;5044301;28;20313;-76
2024/01/03 05:50:24;;;;;;;661.50;600.67;;;8.00;99.90;;;;;;5030046;28;20287;-76
2024/01/03 05:52:52;;;;;;;554.13;507.83;;;8.00;99.90;;;;;;5030327;28;20314;-77
2024/01/03 05:55:21;;;;;;;670.63;604.60;;;8.00;99.90;;;;;;5035038;28;20280;-76
2024/01/03 05:57:50;;;;;;;553.10;508.27;;;8.00;99.90;;;;;;5029927;28;20294;-77
2024/01/03 06:00:16;;;;;;;676.17;614.57;;;8.00;99.90;;;;;;5017101;28;20367;-77
2024/01/03 06:02:45;;;;;;;564.83;518.50;;;8.00;99.90;;;;;;5044720;28;20275;-77
2024/01/03 06:05:16;;;;;;;497.07;458.83;;;8.00;99.90;;;;;;5023214;28;20740;-77
2024/01/03 06:07:44;;;;;;;574.77;529.57;;;8.00;99.90;;;;;;5047087;28;20276;-77
2024/01/03 06:10:12;;;;;;;741.33;663.83;;;8.00;99.90;;;;;;5029829;28;20678;-77
2024/01/03 06:12:39;;;;;;;605.87;554.83;;;8.00;99.90;;;;;;5029121;28;20315;-77
2024/01/03 06:15:09;;;;;;;692.93;627.63;;;8.00;99.90;;;;;;5045040;28;21267;-77
2024/01/03 06:17:36;;;;;;;496.33;456.90;;;8.00;99.90;;;;;;5030558;28;20348;-76
2024/01/03 06:20:03;;;;;;;540.70;498.73;;;8.00;99.90;;;;;;5027518;28;20306;-77
2024/01/03 06:22:29;;;;;;;424.67;393.37;;;8.00;99.90;;;;;;5044549;28;20319;-77
2024/01/03 06:24:55;;;;;;;624.13;565.07;;;8.00;99.90;;;;;;5042420;28;20312;-76
2024/01/03 06:27:21;;;;;;;660.87;593.00;;;8.00;99.90;;;;;;5041080;28;20283;-77
2024/01/03 06:29:47;;;;;;;618.83;566.13;;;8.00;99.90;;;;;;5025726;28;20849;-77
2024/01/03 06:32:14;;;;;;;589.97;538.47;;;8.00;99.90;;;;;;5024945;28;20036;-77
2024/01/03 06:34:41;;;;;;;737.23;658.07;;;8.00;99.90;;;;;;5043992;28;20129;-76
2024/01/03 06:37:07;;;;;;;523.40;480.33;;;8.00;99.90;;;;;;5024588;28;21001;-75
2024/01/03 06:39:33;;;;;;;661.93;601.20;;;8.10;99.90;;;;;;5029570;28;20318;-76
2024/01/03 06:42:00;;;;;;;712.07;639.40;;;8.10;99.90;;;;;;5045527;28;20271;-76
2024/01/03 06:44:26;;;;;;;680.53;616.67;;;8.10;99.90;;;;;;5028190;28;20287;-76
2024/01/03 06:46:54;;;;;;;740.10;666.27;;;8.10;99.90;;;;;;5046817;28;20357;-76
2024/01/03 06:49:21;;;;;;;644.90;583.80;;;8.10;99.90;;;;;;5042853;28;20279;-77
2024/01/03 06:51:48;;;;;;;613.07;560.90;;;8.10;99.90;;;;;;5039794;28;20790;-77
2024/01/03 06:54:14;;;;;;;602.83;548.63;;;8.20;99.90;;;;;;5029981;28;20838;-77
2024/01/03 06:56:40;;;;;;;698.30;634.67;;;8.20;99.90;;;;;;5045779;28;20287;-77
2024/01/03 06:59:06;;;;;;;641.80;583.83;;;8.20;99.90;;;;;;5025538;28;20037;-77
2024/01/03 07:01:32;;;;;;;622.60;566.60;;;8.20;99.90;;;;;;5029733;28;20331;-77
2024/01/03 07:04:00;;;;;;;576.60;527.47;;;8.20;99.90;;;;;;5044089;28;20314;-77
2024/01/03 07:06:26;;;;;;;565.97;518.70;;;8.20;99.90;;;;;;5044384;28;20333;-76
2024/01/03 07:08:53;;;;;;;559.97;515.53;;;8.20;99.90;;;;;;5046540;28;20284;-76
2024/01/03 07:11:19;;;;;;;666.83;608.03;;;8.20;99.90;;;;;;5026219;28;20286;-77
2024/01/03 07:13:45;;;;;;;584.10;536.37;;;8.20;99.90;;;;;;5029372;28;20315;-76
2024/01/03 07:16:11;;;;;;;595.20;537.43;;;8.20;99.90;;;;;;5026271;28;20322;-76
2024/01/03 07:18:38;;;;;;;732.23;639.57;;;8.20;99.90;;;;;;5044691;28;20283;-78
2024/01/03 07:21:06;;;;;;;532.57;489.97;;;8.20;99.90;;;;;;5028822;28;20036;-77
2024/01/03 07:23:36;;;;;;;547.23;502.40;;;8.20;99.90;;;;;;5028016;28;20275;-77
2024/01/03 07:26:05;;;;;;;484.37;448.07;;;8.20;99.90;;;;;;5038784;28;20656;-77
2024/01/03 07:28:33;;;;;;;544.33;500.63;;;8.10;99.90;;;;;;5040340;28;20286;-77
2024/01/03 07:31:01;;;;;;;558.73;513.57;;;8.10;99.90;;;;;;5044635;28;20296;-78
2024/01/03 07:33:27;;;;;;;717.63;646.73;;;8.10;99.90;;;;;;5043015;28;20337;-77
2024/01/03 07:35:54;;;;;;;752.03;676.50;;;8.10;99.90;;;;;;5045133;28;20296;-76
2024/01/03 07:38:22;;;;;;;586.70;534.90;;;8.00;99.90;;;;;;5028862;28;21991;-77
2024/01/03 07:40:48;;;;;;;575.20;528.60;;;8.00;99.90;;;;;;5027993;28;20646;-77
2024/01/03 07:43:16;;;;;;;763.97;680.33;;;8.00;99.90;;;;;;5046636;28;20283;-77
2024/01/03 07:45:44;;;;;;;517.63;477.87;;;8.00;99.90;;;;;;5044324;28;20495;-79
2024/01/03 07:48:10;;;;;;;502.93;463.83;;;8.00;99.90;;;;;;5046053;28;20289;-79
2024/01/03 07:50:39;;;;;;;611.53;559.70;;;8.00;99.90;;;;;;5045745;28;20368;-78
2024/01/03 07:53:07;;;;;;;665.53;603.10;;;8.00;99.90;;;;;;5032475;28;20333;-77
2024/01/03 07:55:34;;;;;;;576.90;526.97;;;7.90;99.90;;;;;;5049112;28;20286;-78
2024/01/03 07:58:02;;;;;;;551.67;504.77;;;7.80;99.90;;;;;;5048323;28;20283;-77
2024/01/03 08:00:30;;;;;;;665.03;601.90;;;7.80;99.90;;;;;;5030372;28;20327;-77
2024/01/03 08:02:57;;;;;;;657.73;599.17;;;7.80;99.90;;;;;;5046231;28;20292;-76
2024/01/03 08:05:24;;;;;;;428.37;396.30;;;7.80;99.90;;;;;;5033703;28;20325;-76
2024/01/03 08:07:50;;;;;;;465.97;431.20;;;7.80;99.90;;;;;;5048332;28;20298;-76
2024/01/03 08:10:19;;;;;;;457.67;423.70;;;7.80;99.90;;;;;;5046332;28;20795;-77
2024/01/03 08:12:45;;;;;;;373.20;346.13;;;7.80;99.90;;;;;;5033329;28;20356;-76
2024/01/03 08:15:12;;;;;;;333.77;309.60;;;7.70;99.90;;;;;;5047209;28;20302;-75
2024/01/03 08:17:40;;;;;;;340.17;315.73;;;7.70;99.90;;;;;;5040591;28;20298;-76
2024/01/03 08:20:08;;;;;;;389.57;360.40;;;7.70;99.90;;;;;;5022718;28;20280;-75
2024/01/03 08:22:34;;;;;;;447.07;413.77;;;7.70;99.90;;;;;;5028566;28;20286;-75
2024/01/03 08:25:02;;;;;;;512.37;472.30;;;7.70;99.90;;;;;;5048246;28;20304;-75
2024/01/03 08:27:32;;;;;;;636.40;580.80;;;7.70;99.90;;;;;;5026353;28;20306;-75
2024/01/03 08:29:59;;;;;;;461.43;426.73;;;7.70;99.90;;;;;;5026887;28;20276;-76
2024/01/03 08:32:25;;;;;;;543.37;498.03;;;7.80;99.90;;;;;;5026952;28;20341;-76
2024/01/03 08:34:56;;;;;;;477.07;440.77;;;7.80;99.90;;;;;;5047632;28;20705;-76
2024/01/03 08:37:28;;;;;;;488.17;449.67;;;7.80;99.90;;;;;;5047605;28;20315;-76
2024/01/03 08:39:54;;;;;;;716.10;646.20;;;7.80;99.90;;;;;;5030178;28;20288;-75
2024/01/03 08:42:28;;;;;;;780.57;701.10;;;7.80;99.90;;;;;;5047847;28;20626;-76
2024/01/03 08:44:54;;;;;;;640.03;580.00;;;7.80;99.90;;;;;;5024278;28;20302;-76
2024/01/03 08:47:23;;;;;;;402.70;371.20;;;7.80;99.90;;;;;;5046508;28;20815;-76
2024/01/03 08:49:52;;;;;;;470.33;436.33;;;7.80;99.90;;;;;;5046217;28;20162;-76
2024/01/03 08:52:21;;;;;;;426.50;395.27;;;7.80;99.90;;;;;;5048246;28;20279;-76
2024/01/03 08:54:48;;;;;;;601.80;549.63;;;7.80;99.90;;;;;;5030262;28;20279;-76
2024/01/03 08:57:18;;;;;;;628.57;568.77;;;7.80;99.90;;;;;;5044571;28;20283;-76
2024/01/03 08:59:44;;;;;;;555.73;509.83;;;7.90;99.90;;;;;;5032161;28;20623;-77
2024/01/03 09:02:13;;;;;;;606.67;554.57;;;7.90;99.90;;;;;;5047766;28;20386;-76
2024/01/03 09:04:41;;;;;;;539.00;496.47;;;7.90;99.90;;;;;;5049257;28;20755;-76
2024/01/03 09:07:09;;;;;;;535.07;492.40;;;7.90;99.90;;;;;;5030653;28;20284;-78
2024/01/03 09:09:38;;;;;;;567.17;520.27;;;7.90;99.90;;;;;;5046859;28;20294;-75
2024/01/03 09:12:05;;;;;;;537.93;496.23;;;8.00;99.90;;;;;;5046139;28;20301;-76
2024/01/03 09:14:33;;;;;;;520.60;479.57;;;8.00;99.90;;;;;;5047042;28;20323;-76
2024/01/03 09:17:00;;;;;;;486.87;449.07;;;8.00;99.90;;;;;;5029623;28;20597;-76
2024/01/03 09:19:28;;;;;;;619.70;565.17;;;8.00;99.90;;;;;;5025962;28;20288;-76
2024/01/03 09:21:55;;;;;;;700.77;630.17;;;8.10;99.90;;;;;;5029648;28;20378;-77
2024/01/03 09:24:25;;;;;;;703.23;637.93;;;8.10;99.90;;;;;;5045479;28;20378;-77
2024/01/03 09:26:51;;;;;;;541.50;500.77;;;8.10;99.90;;;;;;5046216;28;20399;-78
2024/01/03 09:29:20;;;;;;;485.87;448.97;;;8.10;99.90;;;;;;5027304;28;20298;-78
2024/01/03 09:31:46;;;;;;;518.33;477.70;;;8.10;99.90;;;;;;5042431;28;20517;-77
2024/01/03 09:34:15;;;;;;;578.27;530.37;;;8.10;99.90;;;;;;5047184;28;20287;-77
2024/01/03 09:36:43;;;;;;;569.43;524.70;;;8.10;99.90;;;;;;5045700;28;20767;-77
2024/01/03 09:39:10;;;;;;;671.17;607.90;;;8.10;99.90;;;;;;5023755;28;20771;-77
2024/01/03 09:41:38;;;;;;;509.57;471.40;;;8.10;99.90;;;;;;5025560;28;20363;-78
2024/01/03 09:44:06;;;;;;;484.03;446.60;;;8.20;99.90;;;;;;5045720;28;20287;-78
2024/01/03 09:46:33;;;;;;;560.90;513.67;;;8.20;99.90;;;;;;5043721;28;20299;-77
2024/01/03 09:49:00;;;;;;;459.40;424.47;;;8.30;99.90;;;;;;5028119;28;20668;-77
2024/01/03 09:51:31;;;;;;;582.43;532.77;;;8.30;99.90;;;;;;5047730;28;20275;-78
2024/01/03 09:53:59;;;;;;;572.47;524.90;;;8.40;99.90;;;;;;5045440;28;20296;-78
2024/01/03 09:56:26;;;;;;;684.20;622.67;;;8.40;99.90;;;;;;5046008;28;20764;-77
2024/01/03 09:58:54;;;;;;;650.80;596.63;;;8.40;99.90;;;;;;5043986;28;20275;-77
2024/01/03 14:00:49;;;;;;;412.80;382.37;;;8.60;99.90;;;;;;5097623;27;20391;-75
2024/01/03 14:03:15;;;;;;;389.53;359.73;;;8.30;99.90;;;;;;5086438;28;20346;-75
2024/01/03 14:05:41;;;;;;;295.07;275.60;;;8.40;99.90;;;;;;5082496;28;20864;-76
2024/01/03 14:08:07;;;;;;;356.03;332.87;;;8.30;99.90;;;;;;5085721;28;20285;-75
2024/01/03 14:10:34;;;;;;;433.23;402.93;;;8.30;99.90;;;;;;5083165;28;20044;-76
2024/01/03 14:13:00;;;;;;;502.53;463.43;;;8.20;99.90;;;;;;5081947;28;20415;-77
2024/01/03 14:15:28;;;;;;;480.60;444.27;;;8.20;99.90;;;;;;5102838;28;20289;-76
2024/01/03 14:17:54;;;;;;;434.90;403.93;;;8.10;99.90;;;;;;5103405;28;20043;-77
2024/01/03 14:20:20;;;;;;;392.73;365.37;;;8.00;99.90;;;;;;5086344;28;20347;-77
2024/01/03 14:22:45;;;;;;;558.27;512.50;;;8.00;99.90;;;;;;5102937;28;20289;-76
2024/01/03 14:25:12;;;;;;;521.23;481.10;;;8.00;99.90;;;;;;5085631;28;20039;-76
2024/01/03 14:27:42;;;;;;;481.93;446.97;;;8.00;99.90;;;;;;5088738;28;20132;-76
2024/01/03 14:30:12;;;;;;;452.37;419.17;;;7.90;99.90;;;;;;5093168;28;20344;-76
2024/01/03 14:32:43;;;;;;;656.83;598.73;;;7.90;99.90;;;;;;5101374;28;20385;-76
2024/01/03 14:35:09;;;;;;;406.80;377.37;;;7.90;99.90;;;;;;5095718;28;20288;-76
2024/01/03 14:37:35;;;;;;;501.10;462.40;;;7.90;99.90;;;;;;5097631;28;20279;-76
2024/01/03 14:40:11;;;;;;;477.60;440.73;;;7.90;99.90;;;;;;5084000;28;20869;-76
2024/01/03 14:42:38;;;;;;;534.90;492.93;;;7.90;99.90;;;;;;5091835;28;20321;-77
2024/01/03 14:45:05;;;;;;;459.03;423.90;;;7.90;99.90;;;;;;5094522;28;20289;-76
2024/01/03 14:47:31;;;;;;;410.53;380.97;;;7.90;99.90;;;;;;5084649;28;20282;-76
2024/01/03 14:49:56;;;;;;;542.80;499.17;;;7.80;99.90;;;;;;5084843;28;20305;-77
2024/01/03 14:52:22;;;;;;;405.30;376.33;;;7.90;99.90;;;;;;5067831;28;20105;-77
2024/01/03 14:54:48;;;;;;;521.50;480.77;;;7.90;99.90;;;;;;5067154;28;20044;-76
2024/01/03 14:57:13;;;;;;;502.60;462.23;;;7.90;99.90;;;;;;5087474;28;20105;-76
2024/01/03 14:59:39;;;;;;;564.10;517.50;;;7.90;99.90;;;;;;5085329;28;20186;-77
2024/01/03 15:02:10;;;;;;;442.50;409.90;;;7.80;99.90;;;;;;5077376;28;20044;-75
2024/01/03 15:04:36;;;;;;;471.57;435.97;;;7.80;99.90;;;;;;5086832;28;20051;-77
2024/01/03 15:07:03;;;;;;;484.50;446.17;;;7.80;99.90;;;;;;5061891;28;20736;-77
2024/01/03 15:09:30;;;;;;;485.53;447.57;;;7.80;99.90;;;;;;5068054;28;20860;-77
2024/01/03 15:11:56;;;;;;;422.87;391.90;;;7.80;99.90;;;;;;5068941;28;20356;-76
2024/01/03 15:14:22;;;;;;;478.20;441.37;;;7.80;99.90;;;;;;5072059;28;20406;-75
2024/01/03 15:16:48;;;;;;;465.97;431.80;;;7.80;99.90;;;;;;5076457;28;20288;-75
2024/01/03 15:19:14;;;;;;;516.57;473.63;;;7.80;99.90;;;;;;5060693;28;20105;-75
2024/01/03 15:22:12;;;;;;;471.93;435.60;;;7.80;99.90;;;;;;5084506;28;20070;-76
2024/01/03 15:24:38;;;;;;;479.57;441.83;;;7.80;99.90;;;;;;5072113;28;20044;-76
2024/01/03 15:27:04;;;;;;;477.13;440.30;;;7.70;99.90;;;;;;5077323;28;20286;-75
2024/01/03 15:29:31;;;;;;;473.87;438.50;;;7.70;99.90;;;;;;5080478;28;20044;-75
2024/01/03 15:31:57;;;;;;;515.20;474.97;;;7.70;99.90;;;;;;5087733;28;20284;-76
2024/01/03 15:34:24;;;;;;;400.93;372.07;;;7.70;99.90;;;;;;5068336;28;20293;-76
2024/01/03 15:36:50;;;;;;;494.27;454.97;;;7.70;99.90;;;;;;5058942;28;20333;-75
2024/01/03 15:39:16;;;;;;;420.50;389.63;;;7.60;99.90;;;;;;5061822;28;20290;-75
2024/01/03 15:41:42;;;;;;;549.53;498.77;;;7.60;99.90;;;;;;5084208;28;20290;-75
2024/01/03 15:44:08;;;;;;;453.27;419.30;;;7.60;99.90;;;;;;5057867;28;20040;-75
2024/01/03 15:46:34;;;;;;;401.47;372.40;;;7.60;99.90;;;;;;5081947;28;20162;-75
2024/01/03 15:49:00;;;;;;;469.23;433.97;;;7.60;99.90;;;;;;5050291;28;20357;-76
2024/01/03 15:51:26;;;;;;;462.10;428.73;;;7.50;99.90;;;;;;5052861;28;20286;-75
2024/01/03 15:53:52;;;;;;;392.10;365.17;;;7.50;99.90;;;;;;5074119;28;20339;-75
2024/01/03 15:56:25;;;;;;;412.00;381.97;;;7.50;99.90;;;;;;5079182;28;20074;-74
2024/01/03 15:58:51;;;;;;;428.57;397.00;;;7.50;99.90;;;;;;5066355;28;20052;-75
2024/01/03 16:01:17;;;;;;;525.37;482.50;;;7.50;99.90;;;;;;5065021;28;20810;-76
2024/01/03 16:03:43;;;;;;;415.47;385.77;;;7.50;99.90;;;;;;5084589;28;20282;-75
2024/01/03 16:06:10;;;;;;;427.10;395.33;;;7.50;99.90;;;;;;5074657;28;20718;-75
2024/01/03 16:08:38;;;;;;;451.83;418.07;;;7.50;99.90;;;;;;5057752;28;20119;-76
2024/01/03 16:11:06;;;;;;;428.10;396.43;;;7.50;99.90;;;;;;5055265;28;20819;-76
2024/01/03 16:13:32;;;;;;;448.73;414.97;;;7.50;99.90;;;;;;5059282;28;20314;-75
2024/01/03 16:15:58;;;;;;;415.23;385.20;;;7.40;99.90;;;;;;5068273;28;20973;-75
2024/01/03 16:18:24;;;;;;;474.67;438.13;;;7.40;99.90;;;;;;5059206;28;20085;-75